Time;durP1;ratioP1;P1;durP2;ratioP2;P2;SDS_P1;SDS_P2;PMS_P1;PMS_P2;Temp;Humidity;BMP_temperature;BMP_pressure;BME280_temperature;BME280_humidity;BME280_pressure;Samples;Min_cycle;Max_cycle;Signal;HPM_P1;HPM_P2
2022/04/25 00:01:45;;;;;;;5.03;4.13;;;12.70;96.70;;;;;;5078181;28;20417;-86
2022/04/25 00:04:13;;;;;;;9.15;3.92;;;12.70;96.70;;;;;;5056171;28;20045;-85
2022/04/25 00:06:41;;;;;;;5.35;4.22;;;12.70;96.70;;;;;;5059867;28;20053;-86
2022/04/25 00:09:09;;;;;;;4.20;3.80;;;12.70;96.70;;;;;;5083281;28;20059;-86
2022/04/25 00:11:37;;;;;;;5.93;4.13;;;12.70;96.70;;;;;;5081229;28;20078;-85
2022/04/25 00:14:06;;;;;;;4.45;4.05;;;12.70;96.70;;;;;;5078973;28;20794;-85
2022/04/25 00:16:56;;;;;;;7.90;4.30;;;12.70;96.70;;;;;;5080870;28;20053;-85
2022/04/25 00:19:24;;;;;;;5.68;4.10;;;12.70;96.70;;;;;;5074246;28;20143;-86
2022/04/25 00:21:52;;;;;;;5.38;4.43;;;12.70;96.70;;;;;;5060848;28;20040;-85
2022/04/25 00:24:20;;;;;;;7.18;4.20;;;12.70;96.70;;;;;;5063120;28;20040;-86
2022/04/25 00:26:48;;;;;;;6.85;4.32;;;12.70;96.70;;;;;;5056965;28;20597;-85
2022/04/25 00:29:16;;;;;;;5.70;4.50;;;12.70;96.70;;;;;;5065781;28;20090;-86
2022/04/25 00:31:44;;;;;;;5.70;4.32;;;12.70;96.70;;;;;;5064319;28;20453;-86
2022/04/25 00:34:13;;;;;;;8.15;4.60;;;12.80;96.70;;;;;;5075656;28;20098;-85
2022/04/25 00:36:41;;;;;;;6.55;4.35;;;12.80;96.70;;;;;;5064952;28;20041;-87
2022/04/25 00:39:09;;;;;;;8.95;4.82;;;12.80;96.70;;;;;;5057958;28;20071;-86
2022/04/25 00:41:37;;;;;;;6.78;4.70;;;12.70;96.70;;;;;;5064827;28;20049;-84
2022/04/25 00:44:05;;;;;;;6.97;5.10;;;12.70;96.70;;;;;;5080762;28;20123;-84
2022/04/25 00:46:36;;;;;;;9.57;5.43;;;12.70;96.70;;;;;;5064644;28;20108;-86
2022/04/25 00:49:04;;;;;;;7.40;5.28;;;12.60;96.70;;;;;;5075305;28;20064;-85
2022/04/25 00:51:34;;;;;;;7.65;5.00;;;12.60;96.70;;;;;;5061194;28;20131;-85
2022/04/25 00:54:02;;;;;;;6.30;4.80;;;12.60;96.70;;;;;;5065528;28;20102;-87
2022/04/25 00:56:30;;;;;;;6.25;5.65;;;12.60;96.70;;;;;;5059811;28;20048;-87
2022/04/25 00:58:58;;;;;;;8.50;5.82;;;12.60;96.70;;;;;;5052821;28;20048;-84
2022/04/25 01:01:28;;;;;;;8.25;6.00;;;12.50;96.70;;;;;;5048572;28;20068;-85
2022/04/25 01:03:56;;;;;;;9.07;6.13;;;12.50;96.70;;;;;;5044714;28;20406;-85
2022/04/25 01:06:23;;;;;;;10.02;5.97;;;12.40;96.70;;;;;;5061319;28;20055;-87
2022/04/25 01:08:53;;;;;;;12.25;6.93;;;12.40;96.70;;;;;;5062114;28;20041;-86
2022/04/25 01:11:21;;;;;;;11.13;7.03;;;12.40;96.70;;;;;;5069490;28;20067;-84
2022/04/25 01:13:49;;;;;;;10.27;6.10;;;12.30;96.70;;;;;;5061100;28;20117;-84
2022/04/25 01:16:17;;;;;;;9.68;6.07;;;12.30;96.70;;;;;;5049610;28;20510;-85
2022/04/25 01:18:45;;;;;;;11.05;5.35;;;12.30;96.70;;;;;;5075738;28;20041;-84
2022/04/25 01:21:15;;;;;;;10.50;5.68;;;12.20;96.70;;;;;;5059294;28;20075;-85
2022/04/25 01:29:17;;;;;;;8.63;5.10;;;12.20;96.70;;;;;;5064055;28;20041;-86
2022/04/25 01:31:45;;;;;;;7.88;4.68;;;12.10;96.70;;;;;;5046424;28;20628;-86
2022/04/25 01:34:13;;;;;;;7.57;4.60;;;12.20;96.70;;;;;;5080956;28;20037;-86
2022/04/25 01:36:40;;;;;;;8.85;4.72;;;12.20;96.70;;;;;;5083055;28;20126;-85
2022/04/25 01:39:10;;;;;;;8.13;4.45;;;12.20;96.70;;;;;;5065714;28;20048;-85
2022/04/25 01:41:38;;;;;;;10.48;5.60;;;12.20;96.70;;;;;;5061109;28;20118;-86
2022/04/25 01:44:05;;;;;;;10.93;5.63;;;12.20;96.70;;;;;;5062278;28;20040;-86
2022/04/25 01:46:34;;;;;;;11.93;5.85;;;12.10;96.70;;;;;;5063631;28;20051;-86
2022/04/25 01:49:01;;;;;;;11.68;6.63;;;12.10;96.70;;;;;;5063823;28;20119;-85
2022/04/25 01:51:30;;;;;;;12.15;6.75;;;12.10;96.70;;;;;;5062297;28;20048;-85
2022/04/25 01:53:58;;;;;;;15.20;7.55;;;12.10;96.70;;;;;;5061395;28;20051;-85
2022/04/25 01:56:28;;;;;;;15.60;7.32;;;12.10;96.70;;;;;;5065854;28;20060;-85
2022/04/25 01:58:56;;;;;;;14.43;7.13;;;12.00;96.70;;;;;;5038212;28;20709;-86
2022/04/25 02:01:24;;;;;;;14.30;7.15;;;12.10;96.70;;;;;;5062666;28;20032;-85
2022/04/25 02:03:52;;;;;;;15.18;7.25;;;12.20;96.70;;;;;;5078651;28;20047;-86
2022/04/25 02:06:20;;;;;;;15.27;7.32;;;12.20;96.70;;;;;;5066973;28;20044;-86
2022/04/25 02:08:48;;;;;;;13.63;7.38;;;12.20;96.70;;;;;;5056255;28;20049;-86
2022/04/25 02:11:25;;;;;;;15.38;7.82;;;12.20;96.70;;;;;;5075480;28;20524;-85
2022/04/25 02:13:55;;;;;;;13.48;7.60;;;12.30;96.70;;;;;;5062171;28;20052;-86
2022/04/25 02:16:24;;;;;;;16.17;7.40;;;12.30;96.70;;;;;;5063987;28;20453;-86
2022/04/25 02:18:55;;;;;;;18.55;7.45;;;12.30;96.70;;;;;;5062194;28;20044;-86
2022/04/25 02:21:23;;;;;;;18.42;8.00;;;12.30;96.70;;;;;;5047090;28;20068;-85
2022/04/25 02:23:51;;;;;;;15.70;7.25;;;12.30;96.70;;;;;;5056563;28;20070;-86
2022/04/25 02:26:19;;;;;;;18.77;7.72;;;12.40;96.70;;;;;;5061799;28;20051;-85
2022/04/25 02:28:47;;;;;;;18.17;7.60;;;12.40;96.70;;;;;;5057878;28;20451;-85
2022/04/25 02:31:16;;;;;;;17.58;7.93;;;12.30;96.70;;;;;;5065041;28;20048;-86
2022/04/25 02:33:45;;;;;;;16.65;8.07;;;12.20;96.70;;;;;;5074169;28;20045;-86
2022/04/25 02:36:13;;;;;;;22.08;8.90;;;12.30;96.70;;;;;;5055084;28;20044;-86
2022/04/25 02:38:41;;;;;;;18.13;8.57;;;12.40;96.70;;;;;;5032147;28;20212;-92
2022/04/25 02:41:09;;;;;;;23.42;9.05;;;12.40;96.70;;;;;;5054567;28;20162;-91
2022/04/25 02:43:39;;;;;;;18.92;10.18;;;12.40;96.70;;;;;;5067477;28;20536;-92
2022/04/25 02:46:08;;;;;;;19.23;9.05;;;12.40;96.70;;;;;;5083648;28;20562;-92
2022/04/25 02:48:38;;;;;;;25.05;10.52;;;12.40;96.70;;;;;;5045105;28;20044;-90
2022/04/25 02:51:08;;;;;;;17.00;9.68;;;12.40;96.70;;;;;;5061687;28;20049;-90
2022/04/25 02:53:36;;;;;;;16.13;8.13;;;12.40;96.70;;;;;;5070841;28;20135;-90
2022/04/25 02:56:05;;;;;;;16.48;8.98;;;12.40;96.70;;;;;;5071510;28;20581;-91
2022/04/25 02:58:35;;;;;;;16.45;8.70;;;12.40;96.70;;;;;;5069984;28;20049;-91
2022/04/25 03:01:06;;;;;;;18.05;9.35;;;12.40;96.70;;;;;;5053617;28;20067;-91
2022/04/25 03:03:37;;;;;;;15.15;8.63;;;12.30;96.70;;;;;;5086414;28;20051;-89
2022/04/25 03:06:07;;;;;;;14.13;8.35;;;12.30;96.70;;;;;;5070217;28;20094;-90
2022/04/25 03:08:40;;;;;;;11.93;7.75;;;12.30;96.70;;;;;;5053284;28;20056;-91
2022/04/25 03:11:09;;;;;;;11.68;7.85;;;12.30;96.70;;;;;;5087031;28;20044;-91
2022/04/25 03:13:38;;;;;;;12.32;8.27;;;12.30;96.70;;;;;;5053200;28;20052;-92
2022/04/25 03:16:09;;;;;;;11.50;7.18;;;12.30;96.70;;;;;;5086855;28;20501;-91
2022/04/25 03:18:38;;;;;;;11.65;7.43;;;12.30;96.70;;;;;;5083610;28;20071;-92
2022/04/25 03:21:06;;;;;;;11.00;7.20;;;12.30;96.70;;;;;;5071980;28;20125;-92
2022/04/25 03:23:38;;;;;;;11.13;7.50;;;12.30;96.70;;;;;;5068650;28;20029;-91
2022/04/25 03:26:06;;;;;;;11.02;7.50;;;12.40;96.70;;;;;;5053421;28;20072;-91
2022/04/25 03:28:35;;;;;;;10.38;6.93;;;12.40;96.70;;;;;;5053176;28;20052;-92
2022/04/25 03:31:06;;;;;;;11.30;7.72;;;12.40;96.70;;;;;;5069645;28;20102;-91
2022/04/25 03:33:34;;;;;;;12.38;7.35;;;12.40;96.70;;;;;;5074688;28;20040;-91
2022/04/25 03:36:08;;;;;;;10.23;7.03;;;12.40;96.70;;;;;;5086643;28;20099;-91
2022/04/25 03:38:36;;;;;;;10.10;7.60;;;12.30;96.70;;;;;;5052276;28;20053;-90
2022/04/25 03:41:04;;;;;;;10.63;7.30;;;12.30;96.70;;;;;;5086012;28;20040;-90
2022/04/25 03:43:32;;;;;;;9.68;6.65;;;12.30;96.70;;;;;;5070064;28;20132;-91
2022/04/25 03:46:00;;;;;;;9.85;6.85;;;12.30;96.70;;;;;;5076753;28;20045;-91
2022/04/25 03:48:29;;;;;;;10.23;7.13;;;12.30;96.70;;;;;;5059397;28;20057;-90
2022/04/25 03:51:05;;;;;;;8.75;6.82;;;12.20;96.70;;;;;;5056893;28;20047;-92
2022/04/25 03:53:35;;;;;;;10.20;7.78;;;12.10;96.70;;;;;;5075895;28;20940;-91
2022/04/25 03:58:51;;;;;;;11.88;7.85;;;12.10;96.70;;;;;;5062686;28;20907;-91
2022/04/25 04:01:19;;;;;;;11.45;7.97;;;12.10;96.70;;;;;;5075324;28;20050;-92
2022/04/25 04:03:47;;;;;;;12.02;8.50;;;12.00;96.70;;;;;;5082474;28;20064;-92
2022/04/25 04:06:15;;;;;;;10.57;7.88;;;12.00;96.70;;;;;;5071447;28;20149;-92
2022/04/25 04:08:45;;;;;;;9.45;7.43;;;12.10;96.70;;;;;;5064007;28;20056;-89
2022/04/25 04:11:14;;;;;;;10.23;7.60;;;12.10;96.70;;;;;;5062352;28;20040;-92
2022/04/25 04:13:42;;;;;;;9.90;7.35;;;12.10;96.70;;;;;;5052720;28;20045;-91
2022/04/25 04:16:10;;;;;;;11.23;7.90;;;12.10;96.70;;;;;;5068929;28;20068;-92
2022/04/25 04:18:39;;;;;;;11.93;7.90;;;12.10;96.70;;;;;;5068631;28;20123;-92
2022/04/25 04:21:09;;;;;;;8.70;6.90;;;12.10;96.70;;;;;;5062545;28;20083;-91
2022/04/25 04:23:37;;;;;;;8.07;6.70;;;12.10;96.70;;;;;;5068605;28;20032;-92
2022/04/25 04:26:07;;;;;;;8.50;6.57;;;12.10;96.70;;;;;;5068650;28;20044;-91
2022/04/25 04:28:36;;;;;;;9.88;6.75;;;12.10;96.70;;;;;;5060004;28;20224;-91
2022/04/25 04:31:04;;;;;;;7.80;5.88;;;12.10;96.70;;;;;;5037434;28;20337;-92
2022/04/25 04:33:33;;;;;;;8.80;6.32;;;12.10;96.70;;;;;;5051843;28;20717;-92
2022/04/25 04:36:19;;;;;;;8.95;7.25;;;12.10;96.70;;;;;;5036314;28;20594;-91
2022/04/25 04:38:47;;;;;;;8.83;6.63;;;12.10;96.70;;;;;;5066772;28;20045;-89
2022/04/25 04:41:17;;;;;;;7.68;5.70;;;12.10;96.70;;;;;;5068513;28;20079;-91
2022/04/25 04:43:46;;;;;;;7.47;6.28;;;12.10;96.70;;;;;;5067092;28;20056;-91
2022/04/25 04:46:14;;;;;;;7.53;5.32;;;12.10;96.70;;;;;;5061673;28;20044;-93
2022/04/25 04:48:42;;;;;;;7.40;5.20;;;12.10;96.70;;;;;;5068407;28;20120;-89
2022/04/25 04:51:10;;;;;;;7.00;5.40;;;12.10;96.70;;;;;;5067962;28;20055;-91
2022/04/25 04:53:39;;;;;;;7.25;5.47;;;12.20;96.70;;;;;;5069814;28;20495;-90
2022/04/25 04:56:07;;;;;;;8.65;6.10;;;12.20;96.70;;;;;;5087016;28;20068;-90
2022/04/25 04:58:41;;;;;;;6.97;5.47;;;12.20;96.70;;;;;;5063803;28;20067;-91
2022/04/25 05:01:10;;;;;;;11.88;6.25;;;12.10;96.70;;;;;;5081613;28;20047;-91
2022/04/25 05:03:41;;;;;;;10.55;6.10;;;12.20;96.70;;;;;;5089193;28;20050;-91
2022/04/25 05:06:09;;;;;;;9.55;6.72;;;12.20;96.70;;;;;;5068728;28;20093;-92
2022/04/25 05:08:38;;;;;;;11.48;6.07;;;12.20;96.70;;;;;;5067843;28;20048;-91
2022/04/25 05:11:08;;;;;;;9.73;6.13;;;12.20;96.70;;;;;;5067821;28;20063;-90
2022/04/25 05:13:36;;;;;;;10.13;6.10;;;12.20;96.70;;;;;;5051020;28;20521;-91
2022/04/25 05:16:06;;;;;;;9.52;5.97;;;12.20;96.70;;;;;;5067447;28;20409;-90
2022/04/25 05:18:34;;;;;;;8.95;5.82;;;12.30;96.70;;;;;;5067572;28;20125;-91
2022/04/25 05:21:04;;;;;;;10.02;6.43;;;12.40;96.70;;;;;;5065379;28;20092;-92
2022/04/25 05:23:32;;;;;;;8.38;5.80;;;12.50;96.70;;;;;;5067135;28;20055;-91
2022/04/25 05:26:00;;;;;;;7.35;5.88;;;12.50;96.70;;;;;;5078508;28;20049;-92
2022/04/25 05:28:29;;;;;;;9.68;6.30;;;12.60;96.70;;;;;;5084074;28;20051;-91
2022/04/25 05:30:57;;;;;;;12.80;6.50;;;12.60;96.70;;;;;;5061771;28;20464;-90
2022/04/25 05:33:26;;;;;;;7.22;5.57;;;12.50;96.70;;;;;;5080729;28;20041;-90
2022/04/25 05:35:55;;;;;;;8.45;6.03;;;12.50;96.70;;;;;;5067812;28;20118;-91
2022/04/25 05:38:23;;;;;;;7.95;6.28;;;12.60;96.70;;;;;;5067215;28;20044;-91
2022/04/25 05:40:52;;;;;;;9.23;5.85;;;12.60;96.70;;;;;;5083928;28;20114;-90
2022/04/25 05:43:20;;;;;;;7.68;4.93;;;12.70;96.70;;;;;;5050453;28;20048;-91
2022/04/25 05:45:48;;;;;;;8.85;6.22;;;12.70;96.70;;;;;;5050787;28;20075;-91
2022/04/25 05:53:52;;;;;;;8.25;5.70;;;12.70;96.70;;;;;;5079939;28;20048;-91
2022/04/25 05:56:20;;;;;;;8.25;5.50;;;12.80;96.70;;;;;;5066977;28;20979;-92
2022/04/25 05:58:48;;;;;;;9.25;5.78;;;12.70;96.70;;;;;;5084358;28;20040;-92
2022/04/25 06:01:16;;;;;;;8.43;5.82;;;12.70;96.70;;;;;;5083485;28;20482;-92
2022/04/25 06:03:44;;;;;;;7.95;5.68;;;12.80;96.70;;;;;;5066641;28;20403;-90
2022/04/25 06:06:14;;;;;;;8.43;5.68;;;12.80;96.70;;;;;;5049837;28;20077;-90
2022/04/25 06:08:43;;;;;;;6.90;5.65;;;12.90;96.70;;;;;;5054816;28;20076;-91
2022/04/25 06:11:11;;;;;;;7.88;5.65;;;12.90;96.70;;;;;;5068241;28;20074;-91
2022/04/25 06:13:39;;;;;;;9.38;5.88;;;13.00;96.70;;;;;;5067182;28;20493;-91
2022/04/25 06:16:07;;;;;;;8.32;5.88;;;13.00;96.70;;;;;;5067094;28;20040;-90
2022/04/25 06:18:35;;;;;;;6.35;5.03;;;13.10;96.70;;;;;;5060670;28;20056;-91
2022/04/25 06:21:04;;;;;;;7.38;4.85;;;13.10;96.70;;;;;;5076660;28;20048;-91
2022/04/25 06:23:33;;;;;;;8.10;5.05;;;13.20;96.70;;;;;;5067948;28;20044;-92
2022/04/25 06:26:01;;;;;;;5.55;4.45;;;13.20;96.70;;;;;;5061375;28;20098;-91
2022/04/25 06:28:30;;;;;;;8.02;5.20;;;13.20;96.70;;;;;;5069722;28;20080;-90
2022/04/25 06:30:58;;;;;;;6.85;4.60;;;13.20;96.70;;;;;;5065200;28;20086;-91
2022/04/25 06:33:27;;;;;;;7.63;4.97;;;13.20;96.70;;;;;;5050261;28;20049;-91
2022/04/25 06:35:55;;;;;;;6.72;4.60;;;13.20;96.70;;;;;;5072299;28;20068;-91
2022/04/25 06:38:23;;;;;;;8.13;4.55;;;13.20;96.70;;;;;;5088150;28;20055;-92
2022/04/25 06:40:58;;;;;;;7.07;4.53;;;13.20;96.70;;;;;;5050800;28;20098;-90
2022/04/25 06:43:27;;;;;;;5.93;4.32;;;13.20;96.70;;;;;;5087690;28;20142;-92
2022/04/25 06:45:59;;;;;;;9.85;4.93;;;13.20;96.70;;;;;;5047667;28;20037;-92
2022/04/25 06:48:27;;;;;;;6.18;4.65;;;13.20;96.70;;;;;;5072010;28;20055;-92
2022/04/25 06:51:01;;;;;;;6.43;4.30;;;13.20;96.70;;;;;;5086030;28;20575;-91
2022/04/25 06:53:29;;;;;;;5.88;4.20;;;13.30;96.70;;;;;;5086205;28;20056;-92
2022/04/25 06:55:59;;;;;;;8.25;4.25;;;13.30;96.70;;;;;;5064996;28;20041;-91
2022/04/25 06:58:27;;;;;;;10.40;4.93;;;13.40;96.70;;;;;;5054855;28;20567;-90
2022/04/25 07:00:55;;;;;;;8.80;4.30;;;13.40;96.70;;;;;;5071101;28;20044;-89
2022/04/25 07:03:31;;;;;;;8.40;4.45;;;13.40;96.70;;;;;;5070207;28;20415;-90
2022/04/25 07:05:59;;;;;;;8.25;4.47;;;13.40;96.70;;;;;;5078843;28;20060;-92
2022/04/25 07:08:28;;;;;;;6.53;4.47;;;13.50;96.70;;;;;;5085994;28;20044;-90
2022/04/25 07:10:58;;;;;;;5.55;4.07;;;13.50;96.70;;;;;;5073424;28;20135;-89
2022/04/25 07:13:26;;;;;;;7.15;4.45;;;13.50;96.70;;;;;;5074302;28;20045;-91
2022/04/25 07:15:59;;;;;;;6.35;4.43;;;13.50;96.70;;;;;;5069391;28;20550;-87
2022/04/25 07:18:29;;;;;;;7.60;4.50;;;13.60;96.70;;;;;;5073832;28;20045;-89
2022/04/25 07:20:57;;;;;;;4.50;3.67;;;13.60;96.70;;;;;;5079840;28;20106;-92
2022/04/25 07:29:02;;;;;;;7.03;4.10;;;13.80;96.70;;;;;;5069994;28;20070;-89
2022/04/25 07:31:32;;;;;;;8.27;4.50;;;13.90;96.70;;;;;;5077460;28;20041;-83
2022/04/25 07:34:00;;;;;;;7.90;4.43;;;13.90;96.70;;;;;;5082051;28;20506;-83
2022/04/25 07:36:29;;;;;;;7.72;4.38;;;13.90;96.70;;;;;;5072943;28;20045;-86
2022/04/25 07:38:57;;;;;;;7.00;4.03;;;14.00;96.70;;;;;;5066370;28;20075;-84
2022/04/25 07:41:28;;;;;;;8.40;4.57;;;14.10;96.70;;;;;;5061938;28;20106;-86
2022/04/25 07:43:58;;;;;;;5.80;4.18;;;14.20;96.70;;;;;;5061345;28;20068;-86
2022/04/25 07:46:26;;;;;;;6.97;4.82;;;14.30;96.70;;;;;;5078176;28;20226;-87
2022/04/25 07:48:55;;;;;;;6.10;4.43;;;14.40;96.70;;;;;;5052364;28;20052;-86
2022/04/25 07:51:23;;;;;;;6.68;3.70;;;14.40;96.70;;;;;;5047984;28;20127;-85
2022/04/25 07:53:52;;;;;;;6.45;3.92;;;14.50;96.70;;;;;;5064007;28;20045;-85
2022/04/25 07:56:21;;;;;;;6.82;4.03;;;14.50;96.70;;;;;;5059957;28;20048;-85
2022/04/25 07:58:51;;;;;;;6.10;3.80;;;14.50;96.70;;;;;;5073079;28;20044;-85
2022/04/25 08:01:19;;;;;;;6.53;4.03;;;14.50;96.70;;;;;;5057921;28;20140;-86
2022/04/25 08:03:48;;;;;;;6.60;4.25;;;14.60;96.70;;;;;;5049008;28;20072;-86
2022/04/25 08:06:20;;;;;;;6.47;3.38;;;14.60;96.70;;;;;;5067481;28;20138;-87
2022/04/25 08:08:49;;;;;;;4.55;3.35;;;14.50;96.70;;;;;;5076954;28;20143;-89
2022/04/25 08:11:18;;;;;;;5.00;3.13;;;14.60;96.70;;;;;;5068966;28;20127;-89
2022/04/25 08:19:23;;;;;;;3.90;2.97;;;14.60;96.70;;;;;;5085154;28;20049;-88
2022/04/25 08:21:53;;;;;;;7.65;2.88;;;14.60;96.70;;;;;;5077951;28;20048;-88
2022/04/25 08:24:21;;;;;;;5.63;2.47;;;14.60;96.70;;;;;;5068050;28;20068;-89
2022/04/25 08:26:50;;;;;;;5.78;2.85;;;14.70;96.70;;;;;;5065793;28;20106;-84
2022/04/25 08:29:19;;;;;;;6.95;3.15;;;14.70;96.70;;;;;;5057839;28;20045;-85
2022/04/25 08:31:49;;;;;;;7.47;3.53;;;14.80;96.70;;;;;;5049150;28;20040;-85
2022/04/25 08:34:18;;;;;;;8.13;3.30;;;14.80;96.70;;;;;;5064524;28;20052;-86
2022/04/25 08:36:46;;;;;;;5.15;2.58;;;14.90;96.70;;;;;;5071874;28;20048;-85
2022/04/25 08:39:14;;;;;;;6.10;2.97;;;14.80;96.70;;;;;;5062543;28;20550;-85
2022/04/25 08:41:48;;;;;;;5.90;3.20;;;14.90;96.70;;;;;;5064790;28;20044;-82
2022/04/25 08:44:17;;;;;;;5.80;3.03;;;14.90;96.70;;;;;;5062481;28;20080;-85
2022/04/25 08:46:51;;;;;;;5.28;3.30;;;14.90;96.70;;;;;;5062369;28;20132;-85
2022/04/25 08:49:21;;;;;;;5.22;2.92;;;14.90;96.70;;;;;;5065668;28;20140;-85
2022/04/25 08:51:58;;;;;;;7.05;3.30;;;14.90;96.70;;;;;;5076696;28;20053;-85
2022/04/25 08:54:30;;;;;;;5.90;3.00;;;14.90;96.70;;;;;;5083815;28;20049;-87
2022/04/25 08:57:00;;;;;;;5.63;3.08;;;14.80;96.70;;;;;;5066952;28;20148;-85
2022/04/25 08:59:30;;;;;;;5.97;3.10;;;14.80;96.70;;;;;;5063976;28;20144;-85
2022/04/25 09:02:01;;;;;;;6.28;2.92;;;14.80;96.70;;;;;;5082800;28;20053;-88
2022/04/25 09:04:29;;;;;;;5.38;3.15;;;14.80;96.70;;;;;;5079822;28;21514;-86
2022/04/25 09:06:59;;;;;;;6.43;3.33;;;14.80;96.70;;;;;;5083895;28;20040;-88
2022/04/25 09:09:28;;;;;;;4.18;3.05;;;14.80;96.70;;;;;;5067306;28;20139;-87
2022/04/25 09:12:14;;;;;;;4.15;3.03;;;14.80;96.70;;;;;;5038784;28;20442;-89
2022/04/25 09:14:44;;;;;;;6.20;3.60;;;14.80;96.70;;;;;;5077239;28;20044;-84
2022/04/25 09:17:14;;;;;;;5.50;3.30;;;14.80;96.70;;;;;;5075859;28;20048;-87
2022/04/25 09:19:43;;;;;;;5.82;3.13;;;14.90;96.70;;;;;;5061346;28;20055;-89
2022/04/25 09:22:12;;;;;;;6.45;3.20;;;15.00;96.70;;;;;;5065490;28;20094;-87
2022/04/25 09:24:44;;;;;;;7.32;3.10;;;15.00;96.70;;;;;;5083982;28;20064;-89
2022/04/25 09:27:18;;;;;;;4.18;2.58;;;15.10;96.70;;;;;;5066331;28;20079;-87
2022/04/25 09:29:48;;;;;;;6.50;3.55;;;15.00;96.70;;;;;;5060053;28;20475;-86
2022/04/25 09:32:18;;;;;;;7.68;2.80;;;15.00;96.70;;;;;;5064084;28;20151;-87
2022/04/25 09:35:05;;;;;;;4.95;3.20;;;15.00;96.70;;;;;;5067111;28;20044;-88
2022/04/25 09:37:43;;;;;;;6.20;3.20;;;15.00;96.70;;;;;;5077697;28;20075;-87
2022/04/25 09:40:12;;;;;;;6.57;3.03;;;15.00;96.70;;;;;;5047136;28;20076;-86
2022/04/25 09:42:41;;;;;;;4.25;2.80;;;15.00;96.70;;;;;;5060422;28;20057;-89
2022/04/25 09:45:09;;;;;;;5.28;3.17;;;15.00;96.70;;;;;;5050614;28;20139;-90
2022/04/25 09:47:39;;;;;;;4.35;3.25;;;15.10;96.70;;;;;;5074017;28;20052;-86
2022/04/25 09:50:10;;;;;;;7.20;3.58;;;15.10;96.70;;;;;;5083620;28;20098;-88
2022/04/25 09:53:00;;;;;;;6.65;3.40;;;15.20;96.70;;;;;;5082013;28;20410;-91
2022/04/25 09:55:31;;;;;;;10.15;5.20;;;15.20;96.70;;;;;;5053715;28;20052;-88
2022/04/25 09:58:12;;;;;;;6.30;3.33;;;15.30;96.70;;;;;;5049714;28;20106;-85
2022/04/25 10:00:40;;;;;;;7.03;4.10;;;15.40;96.70;;;;;;5078257;28;20058;-90
2022/04/25 10:03:10;;;;;;;6.97;3.22;;;15.40;96.70;;;;;;5070830;28;20053;-89
2022/04/25 10:05:41;;;;;;;7.32;2.90;;;15.40;96.70;;;;;;5066129;28;20052;-89
2022/04/25 10:08:10;;;;;;;5.35;2.85;;;15.50;96.70;;;;;;5059354;28;20133;-89
2022/04/25 10:10:48;;;;;;;5.20;2.83;;;15.60;96.70;;;;;;5082372;28;20052;-88
2022/04/25 10:13:19;;;;;;;5.43;2.95;;;15.70;96.70;;;;;;5082521;28;20486;-89
2022/04/25 10:15:47;;;;;;;6.07;2.75;;;15.80;96.70;;;;;;5068214;28;20055;-85
2022/04/25 10:18:17;;;;;;;7.90;2.65;;;16.00;96.70;;;;;;5079150;28;20056;-87
2022/04/25 10:20:46;;;;;;;4.65;3.03;;;16.10;96.70;;;;;;5084675;28;20041;-88
2022/04/25 10:23:16;;;;;;;6.35;3.17;;;16.40;96.70;;;;;;5075187;28;20040;-88
2022/04/25 10:25:48;;;;;;;4.82;2.60;;;16.70;96.70;;;;;;5083449;28;20059;-88
2022/04/25 10:28:22;;;;;;;4.47;2.72;;;16.80;96.70;;;;;;5066383;28;20087;-88
2022/04/25 10:30:51;;;;;;;6.43;3.75;;;16.70;96.70;;;;;;5067519;28;20318;-88
2022/04/25 10:33:22;;;;;;;8.65;3.28;;;16.60;96.70;;;;;;5077093;28;20047;-89
2022/04/25 10:35:51;;;;;;;4.93;3.17;;;16.50;96.70;;;;;;5080481;28;20527;-88
2022/04/25 10:38:50;;;;;;;3.63;2.75;;;16.50;96.70;;;;;;5058150;28;20143;-87
2022/04/25 10:44:50;;;;;;;3.92;2.50;;;16.50;96.70;;;;;;5058310;28;20070;-83
2022/04/25 10:47:20;;;;;;;5.60;2.75;;;16.50;96.70;;;;;;5069306;28;20084;-84
2022/04/25 10:50:04;;;;;;;4.10;2.40;;;16.40;96.70;;;;;;5073674;28;20101;-83
2022/04/25 10:55:20;;;;;;;7.32;2.33;;;16.70;96.70;;;;;;5078674;28;20037;-84
2022/04/25 10:58:13;;;;;;;6.05;2.50;;;16.80;96.70;;;;;;5070685;28;20055;-84
2022/04/25 11:01:05;;;;;;;5.00;2.55;;;16.70;96.70;;;;;;5062392;28;20102;-84
2022/04/25 11:03:34;;;;;;;5.07;2.72;;;16.80;96.70;;;;;;5041821;28;20097;-83
2022/04/25 11:06:06;;;;;;;4.70;2.40;;;16.80;96.70;;;;;;5072594;28;20586;-83
2022/04/25 11:08:48;;;;;;;5.03;2.38;;;17.00;96.70;;;;;;5058491;28;20136;-84
2022/04/25 11:11:20;;;;;;;5.85;1.75;;;17.10;96.70;;;;;;5077762;28;20072;-85
2022/04/25 11:14:09;;;;;;;4.32;2.03;;;17.40;96.70;;;;;;5059976;28;20043;-83
2022/04/25 11:16:39;;;;;;;4.28;2.38;;;17.20;96.70;;;;;;5057819;28;20051;-83
2022/04/25 11:19:17;;;;;;;5.60;2.08;;;17.20;96.70;;;;;;5067447;28;20058;-82
2022/04/25 11:21:55;;;;;;;5.63;2.17;;;17.10;96.70;;;;;;5055940;28;20498;-83
2022/04/25 11:24:33;;;;;;;5.53;2.15;;;16.90;96.70;;;;;;5062943;28;20098;-82
2022/04/25 11:27:04;;;;;;;3.72;2.17;;;16.90;96.70;;;;;;5056955;28;20052;-82
2022/04/25 11:29:32;;;;;;;4.22;1.63;;;16.90;96.70;;;;;;5047472;28;20089;-85
2022/04/25 11:32:35;;;;;;;3.38;1.73;;;16.80;96.70;;;;;;5056457;28;20049;-83
2022/04/25 11:35:05;;;;;;;4.75;1.85;;;17.10;96.70;;;;;;5080224;28;20045;-83
2022/04/25 11:37:35;;;;;;;4.85;1.70;;;17.40;96.70;;;;;;5054349;28;20414;-85
2022/04/25 11:40:07;;;;;;;3.83;1.52;;;17.80;96.70;;;;;;5055801;28;20075;-83
2022/04/25 11:42:36;;;;;;;3.67;1.60;;;17.60;96.70;;;;;;5058640;28;20423;-84
2022/04/25 11:45:06;;;;;;;4.80;1.73;;;17.40;96.70;;;;;;5067118;28;20033;-84
2022/04/25 11:47:34;;;;;;;3.83;2.08;;;17.50;96.70;;;;;;5062843;28;20553;-86
2022/04/25 11:50:05;;;;;;;3.55;1.67;;;17.80;96.70;;;;;;5082197;28;20063;-85
2022/04/25 11:52:43;;;;;;;2.92;1.75;;;18.00;96.70;;;;;;5071845;28;20040;-85
2022/04/25 11:55:11;;;;;;;2.65;1.50;;;18.20;96.70;;;;;;5083177;28;20083;-85
2022/04/25 11:57:40;;;;;;;3.70;1.60;;;18.30;96.70;;;;;;5065524;28;20495;-85
2022/04/25 12:00:14;;;;;;;3.92;1.65;;;18.60;96.70;;;;;;5076936;28;20056;-84
2022/04/25 12:02:51;;;;;;;5.35;1.83;;;18.90;96.70;;;;;;5061531;28;20443;-84
2022/04/25 12:05:26;;;;;;;7.05;2.05;;;19.30;96.70;;;;;;5064049;28;20049;-85
2022/04/25 12:16:18;;;;;;;3.42;2.58;;;20.10;96.70;;;;;;5062021;28;20496;-84
2022/04/25 12:18:51;;;;;;;5.45;2.75;;;20.20;96.70;;;;;;5053684;28;20560;-84
2022/04/25 12:21:21;;;;;;;5.60;2.70;;;20.20;96.70;;;;;;5078851;28;20048;-83
2022/04/25 12:23:59;;;;;;;3.83;2.00;;;19.80;96.70;;;;;;5074188;28;20530;-83
2022/04/25 12:26:32;;;;;;;5.32;2.88;;;19.50;96.70;;;;;;5058988;28;20048;-84
2022/04/25 12:29:05;;;;;;;2.80;2.30;;;19.30;96.70;;;;;;5056662;28;20099;-84
2022/04/25 12:31:38;;;;;;;3.20;2.20;;;19.30;96.70;;;;;;5054806;28;20049;-84
2022/04/25 12:34:08;;;;;;;4.25;2.30;;;19.10;96.70;;;;;;5077848;28;20524;-84
2022/04/25 12:36:38;;;;;;;7.20;2.83;;;19.00;96.70;;;;;;5059510;28;20426;-84
2022/04/25 12:39:12;;;;;;;6.68;3.00;;;18.90;96.70;;;;;;5074290;28;20676;-84
2022/04/25 12:41:50;;;;;;;4.25;2.40;;;19.00;96.70;;;;;;5057982;28;20869;-84
2022/04/25 12:44:19;;;;;;;5.15;2.08;;;18.90;96.70;;;;;;5052946;28;20068;-84
2022/04/25 12:46:49;;;;;;;3.28;1.63;;;19.00;96.70;;;;;;5059604;28;20124;-83
2022/04/25 12:49:18;;;;;;;3.38;1.70;;;18.90;96.70;;;;;;5054228;28;20048;-85
2022/04/25 12:51:56;;;;;;;5.45;1.98;;;18.70;96.70;;;;;;5065918;28;20055;-84
2022/04/25 12:54:30;;;;;;;4.28;2.10;;;18.80;96.70;;;;;;5060920;28;20725;-85
2022/04/25 12:57:13;;;;;;;3.85;1.58;;;19.30;96.70;;;;;;5060700;28;20417;-84
2022/04/25 12:59:42;;;;;;;6.22;1.88;;;19.60;96.70;;;;;;5065346;28;20050;-84
2022/04/25 13:02:15;;;;;;;5.35;1.98;;;19.60;96.70;;;;;;5057063;28;20112;-84
2022/04/25 13:04:54;;;;;;;6.53;1.55;;;19.50;96.70;;;;;;5058675;28;20143;-84
2022/04/25 13:07:24;;;;;;;4.85;1.55;;;19.70;96.70;;;;;;5060763;28;20091;-84
2022/04/25 13:09:55;;;;;;;3.42;1.63;;;19.90;96.70;;;;;;5059562;28;20127;-84
2022/04/25 13:12:25;;;;;;;4.22;1.50;;;19.90;96.70;;;;;;5056870;28;20118;-84
2022/04/25 13:14:53;;;;;;;4.40;2.10;;;20.00;96.70;;;;;;5056968;28;20048;-84
2022/04/25 13:17:21;;;;;;;3.63;1.88;;;20.00;96.70;;;;;;5057851;28;20048;-84
2022/04/25 13:19:48;;;;;;;5.28;1.73;;;20.00;96.70;;;;;;5057938;28;20422;-84
2022/04/25 13:22:17;;;;;;;4.50;1.73;;;20.00;96.70;;;;;;5052058;28;20041;-84
2022/04/25 13:24:46;;;;;;;5.70;1.92;;;20.20;96.70;;;;;;5046925;28;20060;-86
2022/04/25 13:27:17;;;;;;;3.80;1.60;;;20.30;96.70;;;;;;5065898;28;20514;-85
2022/04/25 13:29:45;;;;;;;4.95;2.92;;;20.30;96.70;;;;;;5061591;28;20102;-85
2022/04/25 13:32:13;;;;;;;4.28;1.90;;;20.40;96.70;;;;;;5074065;28;20040;-85
2022/04/25 13:34:41;;;;;;;8.02;2.03;;;20.40;96.70;;;;;;5058318;28;20498;-84
2022/04/25 13:37:11;;;;;;;4.63;1.83;;;20.30;96.70;;;;;;5073539;28;20048;-85
2022/04/25 13:39:40;;;;;;;5.45;2.35;;;20.60;96.70;;;;;;5064058;28;20819;-85
2022/04/25 13:42:09;;;;;;;5.50;1.98;;;20.50;96.70;;;;;;5071534;28;20625;-85